createdAt,value
2019-05-29T14:06:29.137Z,99206.45
2019-05-29T14:08:58.937Z,99209.98
2019-05-29T14:11:27.786Z,99215.23
2019-05-29T14:13:56.581Z,99204.59
2019-05-29T14:16:25.319Z,99211.11
2019-05-29T14:18:54.212Z,99204.93
2019-05-29T14:21:22.949Z,99211.19
2019-05-29T14:23:51.786Z,99208.66
2019-05-29T14:26:20.589Z,99210.86
2019-05-29T14:28:49.468Z,99208.64
2019-05-29T14:31:18.285Z,99211.02
2019-05-29T14:33:47.140Z,99211.17
2019-05-29T14:36:16.067Z,99212.38
2019-05-29T14:38:44.978Z,99207.27
2019-05-29T14:41:13.701Z,99214.05
2019-05-29T14:43:42.466Z,99201.56
2019-05-29T14:46:12.162Z,99204.45
2019-05-29T14:48:40.902Z,99204.43
2019-05-29T14:51:10.596Z,99205.12
2019-05-29T14:53:39.526Z,99203.58
2019-05-29T14:56:08.875Z,99204.42
2019-05-29T14:58:37.671Z,99209.00
2019-05-29T15:01:07.175Z,99212.20
2019-05-29T15:03:36.059Z,99209.45
2019-05-29T15:06:05.513Z,99207.13
2019-05-29T15:08:34.295Z,99200.87
2019-05-29T15:11:03.694Z,99209.58
2019-05-29T15:13:32.614Z,99207.73
2019-05-29T15:16:01.348Z,99215.52
2019-05-29T15:18:30.171Z,99214.64
2019-05-29T15:20:59.014Z,99214.47
2019-05-29T15:23:27.740Z,99218.77
2019-05-29T15:25:56.472Z,99216.78
2019-05-29T15:28:25.207Z,99219.88
2019-05-29T15:30:53.938Z,99228.80
2019-05-29T15:33:22.727Z,99221.14
2019-05-29T15:35:51.462Z,99222.30
2019-05-29T15:38:20.175Z,99215.30
2019-05-29T15:40:48.985Z,99217.66
2019-05-29T15:43:17.901Z,99215.73
2019-05-29T15:45:46.797Z,99220.20
2019-05-29T15:48:15.535Z,99226.49
2019-05-29T15:50:44.287Z,99223.25
2019-05-29T15:53:13.211Z,99220.95
2019-05-29T15:55:42.088Z,99217.36
2019-05-29T15:58:11.203Z,99219.10
2019-05-29T16:00:39.973Z,99220.06
2019-05-29T16:03:09.428Z,99228.27
2019-05-29T16:05:38.249Z,99223.69
2019-05-29T16:08:07.960Z,99224.99
2019-05-29T16:10:36.716Z,99228.97
2019-05-29T16:13:05.562Z,99227.34
2019-05-29T16:15:34.285Z,99220.70
2019-05-29T16:18:03.050Z,99224.28
2019-05-29T16:20:31.859Z,99229.50
2019-05-29T16:23:00.594Z,99227.98
2019-05-29T16:25:39.385Z,99226.36
2019-05-29T16:27:59.777Z,99224.66
2019-05-29T16:30:28.743Z,99221.14
2019-05-29T16:32:57.610Z,99224.18
